createdAt,value
2019-06-01T00:00:51.364Z,0.00
2019-06-01T00:01:51.356Z,0.00
2019-06-01T00:02:55.526Z,0.00
2019-06-01T00:03:52.333Z,0.00
2019-06-01T00:04:51.323Z,0.00
2019-06-01T00:05:51.311Z,0.00
2019-06-01T00:06:51.301Z,0.00
2019-06-01T00:07:51.291Z,0.00
2019-06-01T00:08:51.296Z,0.00
2019-06-01T00:09:51.268Z,0.00
2019-06-01T00:10:51.258Z,0.00
2019-06-01T00:11:51.250Z,0.00
2019-06-01T00:12:51.237Z,0.00
2019-06-01T00:13:51.242Z,0.00
2019-06-01T00:14:51.218Z,0.00
2019-06-01T00:15:51.205Z,0.00
2019-06-01T00:16:51.196Z,0.00
2019-06-01T00:17:51.184Z,0.00
2019-06-01T00:18:51.175Z,0.00
2019-06-01T00:19:51.167Z,0.00
2019-06-01T00:20:51.153Z,0.00
2019-06-01T00:21:52.259Z,0.00
2019-06-01T00:22:51.759Z,0.00
2019-06-01T00:23:51.124Z,0.00
2019-06-01T00:24:52.295Z,0.00
2019-06-01T00:25:51.100Z,0.00
2019-06-01T00:26:52.073Z,0.00
2019-06-01T00:27:51.105Z,0.00
2019-06-01T00:28:52.909Z,0.00
2019-06-01T00:29:51.062Z,0.00
2019-06-01T00:30:52.064Z,0.00
2019-06-01T00:31:52.127Z,0.00
2019-06-01T00:32:51.338Z,0.00
2019-06-01T00:33:51.769Z,0.00
2019-06-01T00:34:51.870Z,0.00
2019-06-01T00:35:51.623Z,0.00
2019-06-01T00:36:51.962Z,0.00
2019-06-01T00:37:51.792Z,0.00
2019-06-01T00:38:52.021Z,0.00
2019-06-01T00:39:52.000Z,0.00
2019-06-01T00:40:52.017Z,0.00
2019-06-01T00:41:52.380Z,0.00
2019-06-01T00:42:50.920Z,0.00
2019-06-01T00:43:50.909Z,0.00
2019-06-01T00:44:50.899Z,0.00
2019-06-01T00:45:50.999Z,0.00
2019-06-01T00:46:50.879Z,0.00
2019-06-01T00:47:50.972Z,0.00
2019-06-01T00:48:52.113Z,0.00
2019-06-01T00:49:51.123Z,0.00
2019-06-01T00:50:51.076Z,0.00
2019-06-01T00:51:52.076Z,0.00
2019-06-01T00:52:51.401Z,0.00
2019-06-01T00:53:51.810Z,0.00
2019-06-01T00:54:51.675Z,0.00
2019-06-01T00:55:51.583Z,0.00
2019-06-01T00:56:51.682Z,0.00
2019-06-01T00:57:51.896Z,0.00
2019-06-01T00:58:51.858Z,0.00
2019-06-01T00:59:53.102Z,0.00
2019-06-01T01:00:52.042Z,0.00
2019-06-01T01:01:52.116Z,0.00
2019-06-01T01:02:50.710Z,0.00
2019-06-01T01:03:50.701Z,0.00
2019-06-01T01:04:50.692Z,0.00
2019-06-01T01:05:50.788Z,0.00
2019-06-01T01:06:50.910Z,0.00
2019-06-01T01:07:51.607Z,0.00
2019-06-01T01:08:50.991Z,0.00
2019-06-01T01:09:50.861Z,0.00
2019-06-01T01:10:51.097Z,0.00
2019-06-01T01:11:51.238Z,0.00
2019-06-01T01:12:51.115Z,0.00
2019-06-01T01:13:51.276Z,0.00
2019-06-01T01:14:51.290Z,0.00
2019-06-01T01:15:51.404Z,0.00
2019-06-01T01:16:51.669Z,0.00
2019-06-01T01:17:51.891Z,0.00
2019-06-01T01:18:51.758Z,0.00
2019-06-01T01:19:51.880Z,0.00
2019-06-01T01:20:50.521Z,0.00
2019-06-01T01:21:50.510Z,0.00
2019-06-01T01:22:50.500Z,0.00
2019-06-01T01:23:50.487Z,0.00
2019-06-01T01:24:50.560Z,0.00
2019-06-01T01:25:50.566Z,0.00
2019-06-01T01:26:50.595Z,0.00
2019-06-01T01:27:50.668Z,0.00
2019-06-01T01:28:50.734Z,0.00
2019-06-01T01:29:50.939Z,0.00
2019-06-01T01:31:03.013Z,0.00
2019-06-01T01:31:51.400Z,0.00
2019-06-01T01:32:51.706Z,0.00
2019-06-01T01:33:51.395Z,0.00
2019-06-01T01:34:51.500Z,0.00
2019-06-01T01:35:52.392Z,0.00
2019-06-01T01:36:50.350Z,0.00
2019-06-01T01:37:50.343Z,0.00
2019-06-01T01:38:50.503Z,0.00
2019-06-01T01:39:50.315Z,0.00
2019-06-01T01:40:50.307Z,0.00
2019-06-01T01:41:50.300Z,0.00
2019-06-01T01:42:50.607Z,0.00
2019-06-01T01:43:50.412Z,0.00
2019-06-01T01:44:50.505Z,0.00
2019-06-01T01:45:50.662Z,0.00
2019-06-01T01:46:50.719Z,0.00
2019-06-01T01:47:50.841Z,0.00
2019-06-01T01:48:50.218Z,0.00
2019-06-01T01:49:50.211Z,0.00
2019-06-01T01:50:50.298Z,0.00
2019-06-01T01:51:50.450Z,0.00
2019-06-01T01:52:50.638Z,0.00
2019-06-01T01:53:50.569Z,0.00
2019-06-01T01:54:50.634Z,0.00
2019-06-01T01:55:50.931Z,0.00
2019-06-01T01:56:50.135Z,0.00
2019-06-01T01:57:51.179Z,0.00
2019-06-01T01:58:50.339Z,0.00
2019-06-01T01:59:51.212Z,0.00
2019-06-01T02:00:52.476Z,0.00
2019-06-01T02:01:50.410Z,0.00
2019-06-01T02:02:50.073Z,0.00
2019-06-01T02:03:51.407Z,0.00
2019-06-01T02:04:50.049Z,0.00
2019-06-01T02:05:50.751Z,0.00
2019-06-01T02:06:50.028Z,0.00
2019-06-01T02:07:50.938Z,0.00
2019-06-01T02:08:50.986Z,0.00
2019-06-01T02:09:51.081Z,0.00
2019-06-01T02:10:51.105Z,0.00
2019-06-01T02:11:51.293Z,0.00
2019-06-01T02:12:51.300Z,0.00
2019-06-01T02:13:49.955Z,0.00
2019-06-01T02:14:49.940Z,0.00
2019-06-01T02:15:49.929Z,0.00
2019-06-01T02:16:49.918Z,0.00
2019-06-01T02:17:49.907Z,0.00
2019-06-01T02:18:49.923Z,0.00
2019-06-01T02:19:49.886Z,0.00
2019-06-01T02:20:49.885Z,0.00
2019-06-01T02:21:49.865Z,0.00
2019-06-01T02:22:49.854Z,0.00
2019-06-01T02:23:49.843Z,0.00
2019-06-01T02:24:49.834Z,0.00
2019-06-01T02:25:49.825Z,0.00
2019-06-01T02:26:49.811Z,0.00
2019-06-01T02:27:49.802Z,0.00
2019-06-01T02:28:49.790Z,0.00
2019-06-01T02:29:49.777Z,0.00
2019-06-01T02:30:49.775Z,0.00
2019-06-01T02:31:49.757Z,0.00
2019-06-01T02:32:49.748Z,0.00
2019-06-01T02:33:49.756Z,0.00
2019-06-01T02:34:49.726Z,0.00
2019-06-01T02:35:49.717Z,0.00
2019-06-01T02:36:49.725Z,0.00
2019-06-01T02:37:49.695Z,0.00
2019-06-01T02:38:49.682Z,0.00
2019-06-01T02:39:49.672Z,0.00
2019-06-01T02:40:49.660Z,0.00
2019-06-01T02:41:49.652Z,0.00
2019-06-01T02:42:49.644Z,0.00
2019-06-01T02:43:49.629Z,0.00
2019-06-01T02:44:49.620Z,0.00
2019-06-01T02:45:49.610Z,0.00
2019-06-01T02:46:49.601Z,0.00
2019-06-01T02:47:49.592Z,0.00
2019-06-01T02:48:49.590Z,0.00
2019-06-01T02:49:49.566Z,0.00
2019-06-01T02:50:49.557Z,0.00
2019-06-01T02:51:49.544Z,0.00
2019-06-01T02:52:49.536Z,0.00
2019-06-01T02:53:49.529Z,0.00
2019-06-01T02:54:49.512Z,0.00
2019-06-01T02:55:49.505Z,0.00
2019-06-01T02:56:49.493Z,0.00
2019-06-01T02:57:49.482Z,0.00
2019-06-01T02:58:49.471Z,0.00
2019-06-01T02:59:49.462Z,0.00
2019-06-01T03:00:49.451Z,0.00
2019-06-01T03:01:57.156Z,0.00
2019-06-01T03:02:50.427Z,0.00
2019-06-01T03:03:49.420Z,0.00
2019-06-01T03:04:49.408Z,0.00
2019-06-01T03:05:49.398Z,0.00
2019-06-01T03:06:49.396Z,0.00
2019-06-01T03:07:49.416Z,0.00
2019-06-01T03:08:49.369Z,0.00
2019-06-01T03:09:49.355Z,0.00
2019-06-01T03:10:49.345Z,0.00
2019-06-01T03:11:49.335Z,0.00
2019-06-01T03:12:49.324Z,0.00
2019-06-01T03:13:49.316Z,0.00
2019-06-01T03:14:49.304Z,0.00
2019-06-01T03:15:49.297Z,0.00
2019-06-01T03:16:49.282Z,0.00
2019-06-01T03:17:49.270Z,0.00
2019-06-01T03:18:49.262Z,0.00
2019-06-01T03:19:49.254Z,0.00
2019-06-01T03:20:49.238Z,0.00
2019-06-01T03:21:49.230Z,0.00
2019-06-01T03:22:49.218Z,0.00
2019-06-01T03:23:49.220Z,0.00
2019-06-01T03:24:49.197Z,0.00
2019-06-01T03:25:49.193Z,0.00
2019-06-01T03:26:49.174Z,0.00
2019-06-01T03:27:49.165Z,0.00
2019-06-01T03:28:49.165Z,0.00
2019-06-01T03:29:49.145Z,0.00
2019-06-01T03:30:49.139Z,0.00
2019-06-01T03:31:49.128Z,0.00
2019-06-01T03:32:49.112Z,0.00
2019-06-01T03:33:49.108Z,0.00
2019-06-01T03:34:49.090Z,0.00
2019-06-01T03:35:49.083Z,0.00
2019-06-01T03:36:49.094Z,0.00
2019-06-01T03:37:49.060Z,0.00
2019-06-01T03:38:49.051Z,0.00
2019-06-01T03:39:49.037Z,0.00
2019-06-01T03:40:49.028Z,0.00
2019-06-01T03:41:49.020Z,0.00
2019-06-01T03:42:49.007Z,0.00
2019-06-01T03:43:48.998Z,0.00
2019-06-01T03:44:48.995Z,0.00
2019-06-01T03:45:48.974Z,0.00
2019-06-01T03:46:48.963Z,0.00
2019-06-01T03:47:48.954Z,0.00
2019-06-01T03:48:48.948Z,0.00
2019-06-01T03:49:48.932Z,0.00
2019-06-01T03:50:48.921Z,0.00
2019-06-01T03:51:48.919Z,0.00
2019-06-01T03:52:48.905Z,0.00
2019-06-01T03:53:48.894Z,0.00
2019-06-01T03:54:48.881Z,0.00
2019-06-01T03:55:48.867Z,0.00
2019-06-01T03:56:48.858Z,0.00
2019-06-01T03:57:48.849Z,0.00
2019-06-01T03:58:48.838Z,0.00
2019-06-01T03:59:48.829Z,0.00
2019-06-01T04:00:48.822Z,0.00
2019-06-01T04:01:48.812Z,0.00
2019-06-01T04:02:48.794Z,0.00
2019-06-01T04:03:48.783Z,0.00
2019-06-01T04:04:48.779Z,0.00
2019-06-01T04:05:48.767Z,0.00
2019-06-01T04:06:48.758Z,0.00
2019-06-01T04:07:48.743Z,0.00
2019-06-01T04:08:48.732Z,0.00
2019-06-01T04:09:48.723Z,0.00
2019-06-01T04:10:48.710Z,5.62
2019-06-01T04:11:48.720Z,5.62
2019-06-01T04:12:48.708Z,5.62
2019-06-01T04:13:48.678Z,5.62
2019-06-01T04:14:48.667Z,5.62
2019-06-01T04:15:48.658Z,5.62
2019-06-01T04:16:48.649Z,5.62
2019-06-01T04:17:48.637Z,5.62
2019-06-01T04:18:48.629Z,5.62
2019-06-01T04:19:48.653Z,5.62
2019-06-01T04:20:48.605Z,5.62
2019-06-01T04:21:48.592Z,5.62
2019-06-01T04:22:48.588Z,5.62
2019-06-01T04:23:48.574Z,5.62
2019-06-01T04:24:48.585Z,5.62
2019-06-01T04:25:48.551Z,5.62
2019-06-01T04:26:48.543Z,5.62
2019-06-01T04:27:48.531Z,5.62
2019-06-01T04:28:48.532Z,5.62
2019-06-01T04:29:48.516Z,5.62
2019-06-01T04:30:48.498Z,5.62
2019-06-01T04:31:48.494Z,5.62
2019-06-01T04:32:50.247Z,5.62
2019-06-01T04:33:48.470Z,5.62
2019-06-01T04:34:48.455Z,5.62
2019-06-01T04:35:48.446Z,5.62
2019-06-01T04:36:48.435Z,5.62
2019-06-01T04:37:48.425Z,5.62
2019-06-01T04:38:48.412Z,5.62
2019-06-01T04:39:48.404Z,5.62
2019-06-01T04:40:48.402Z,5.62
2019-06-01T04:41:48.381Z,5.62
2019-06-01T04:42:48.400Z,5.62
2019-06-01T04:43:48.361Z,5.62
2019-06-01T04:44:48.357Z,5.62
2019-06-01T04:45:48.344Z,5.62
2019-06-01T04:46:48.333Z,5.62
2019-06-01T04:47:48.319Z,5.62
2019-06-01T04:48:48.309Z,11.25
2019-06-01T04:49:48.296Z,11.25
2019-06-01T04:50:48.286Z,11.25
2019-06-01T04:51:48.277Z,16.88
2019-06-01T04:52:48.269Z,22.50
2019-06-01T04:53:48.252Z,28.12
2019-06-01T04:54:48.247Z,28.12
2019-06-01T04:55:48.232Z,33.75
2019-06-01T04:56:48.220Z,33.75
2019-06-01T04:57:48.221Z,33.75
2019-06-01T04:58:48.199Z,33.75
2019-06-01T04:59:48.188Z,28.12
2019-06-01T05:00:48.179Z,28.12
2019-06-01T05:01:48.168Z,28.12
2019-06-01T05:02:48.157Z,28.12
2019-06-01T05:03:48.146Z,28.12
2019-06-01T05:04:48.137Z,28.12
2019-06-01T05:05:48.124Z,33.75
2019-06-01T05:06:48.116Z,33.75
2019-06-01T05:07:48.102Z,33.75
2019-06-01T05:08:48.102Z,39.38
2019-06-01T05:09:48.083Z,39.38
2019-06-01T05:10:48.072Z,39.38
2019-06-01T05:11:48.094Z,39.38
2019-06-01T05:12:48.072Z,39.38
2019-06-01T05:13:48.039Z,39.38
2019-06-01T05:14:48.028Z,39.38
2019-06-01T05:15:48.019Z,39.38
2019-06-01T05:16:48.010Z,39.38
2019-06-01T05:17:47.997Z,16.88
2019-06-01T05:18:47.988Z,16.88
2019-06-01T05:19:47.985Z,16.88
2019-06-01T05:20:47.980Z,11.25
2019-06-01T05:21:47.956Z,11.25
2019-06-01T05:22:47.947Z,11.25
2019-06-01T05:23:47.934Z,11.25
2019-06-01T05:24:47.926Z,11.25
2019-06-01T05:25:47.914Z,16.88
2019-06-01T05:26:47.908Z,11.25
2019-06-01T05:27:47.892Z,11.25
2019-06-01T05:28:47.882Z,11.25
2019-06-01T05:29:47.870Z,11.25
2019-06-01T05:30:47.862Z,11.25
2019-06-01T05:31:47.853Z,11.25
2019-06-01T05:32:47.841Z,16.88
2019-06-01T05:33:47.829Z,16.88
2019-06-01T05:34:47.818Z,16.88
2019-06-01T05:35:47.813Z,16.88
2019-06-01T05:36:47.799Z,16.88
2019-06-01T05:37:47.788Z,11.25
2019-06-01T05:38:47.778Z,16.88
2019-06-01T05:39:47.767Z,16.88
2019-06-01T05:40:47.755Z,16.88
2019-06-01T05:41:47.745Z,11.25
2019-06-01T05:42:47.734Z,11.25
2019-06-01T05:43:47.724Z,11.25
2019-06-01T05:44:47.712Z,11.25
2019-06-01T05:45:47.703Z,11.25
2019-06-01T05:46:47.718Z,5.62
2019-06-01T05:47:47.681Z,11.25
2019-06-01T05:48:47.673Z,11.25
2019-06-01T05:49:47.682Z,5.62
2019-06-01T05:50:47.650Z,5.62
2019-06-01T05:51:47.657Z,5.62
2019-06-01T05:52:47.628Z,11.25
2019-06-01T05:53:47.617Z,11.25
2019-06-01T05:54:47.608Z,11.25
2019-06-01T05:55:47.600Z,11.25
2019-06-01T05:56:47.585Z,5.62
2019-06-01T05:57:47.583Z,11.25
2019-06-01T05:58:47.567Z,11.25
2019-06-01T05:59:47.553Z,11.25
2019-06-01T06:00:47.544Z,11.25
2019-06-01T06:01:47.537Z,11.25
2019-06-01T06:02:47.525Z,11.25
2019-06-01T06:03:47.516Z,11.25
2019-06-01T06:04:47.502Z,11.25
2019-06-01T06:05:47.491Z,11.25
2019-06-01T06:06:47.482Z,11.25
2019-06-01T06:07:47.470Z,5.62
2019-06-01T06:08:47.472Z,5.62
2019-06-01T06:09:47.469Z,5.62
2019-06-01T06:10:47.438Z,11.25
2019-06-01T06:11:47.427Z,11.25
2019-06-01T06:12:47.416Z,11.25
2019-06-01T06:13:47.408Z,11.25
2019-06-01T06:14:47.396Z,11.25
2019-06-01T06:15:47.388Z,16.88
2019-06-01T06:16:47.383Z,16.88
2019-06-01T06:17:47.364Z,16.88
2019-06-01T06:18:47.355Z,11.25
2019-06-01T06:19:47.344Z,11.25
2019-06-01T06:20:47.332Z,16.88
2019-06-01T06:21:47.321Z,39.38
2019-06-01T06:22:47.315Z,33.75
2019-06-01T06:23:47.304Z,28.12
2019-06-01T06:24:47.292Z,39.38
2019-06-01T06:25:47.281Z,39.38
2019-06-01T06:26:47.271Z,22.50
2019-06-01T06:27:47.260Z,16.88
2019-06-01T06:28:47.249Z,16.88
2019-06-01T06:29:47.238Z,16.88
2019-06-01T06:30:47.228Z,16.88
2019-06-01T06:31:47.221Z,11.25
2019-06-01T06:32:47.210Z,11.25
2019-06-01T06:33:55.921Z,11.25
2019-06-01T06:34:48.191Z,11.25
2019-06-01T06:35:47.175Z,11.25
2019-06-01T06:36:47.166Z,11.25
2019-06-01T06:37:47.155Z,11.25
2019-06-01T06:38:47.148Z,11.25
2019-06-01T06:39:47.143Z,16.88
2019-06-01T06:40:47.120Z,16.88
2019-06-01T06:41:47.121Z,16.88
2019-06-01T06:42:47.138Z,22.50
2019-06-01T06:43:47.114Z,22.50
2019-06-01T06:44:47.082Z,16.88
2019-06-01T06:45:47.072Z,28.12
2019-06-01T06:46:47.062Z,39.38
2019-06-01T06:47:47.048Z,16.88
2019-06-01T06:48:47.037Z,16.88
2019-06-01T06:49:47.032Z,22.50
2019-06-01T06:50:47.023Z,22.50
2019-06-01T06:51:47.004Z,22.50
2019-06-01T06:52:47.004Z,22.50
2019-06-01T06:53:46.986Z,45.00
2019-06-01T06:54:46.972Z,28.12
2019-06-01T06:55:46.960Z,45.00
2019-06-01T06:56:46.980Z,61.88
2019-06-01T06:57:46.947Z,56.25
2019-06-01T06:58:46.940Z,33.75
2019-06-01T06:59:46.919Z,28.12
2019-06-01T07:00:46.921Z,28.12
2019-06-01T07:01:46.904Z,45.00
2019-06-01T07:02:46.900Z,45.00
2019-06-01T07:03:46.880Z,73.12
2019-06-01T07:04:46.866Z,61.88
2019-06-01T07:05:46.855Z,33.75
2019-06-01T07:06:46.877Z,33.75
2019-06-01T07:07:46.836Z,33.75
2019-06-01T07:08:48.797Z,45.00
2019-06-01T07:09:46.853Z,22.50
2019-06-01T07:10:46.807Z,28.12
2019-06-01T07:11:46.809Z,28.12
2019-06-01T07:12:46.792Z,28.12
2019-06-01T07:13:46.795Z,28.12
2019-06-01T07:14:46.760Z,28.12
2019-06-01T07:15:46.751Z,28.12
2019-06-01T07:16:46.748Z,39.38
2019-06-01T07:17:46.754Z,45.00
2019-06-01T07:18:46.726Z,67.50
2019-06-01T07:19:46.707Z,67.50
2019-06-01T07:20:46.705Z,61.88
2019-06-01T07:21:46.697Z,61.88
2019-06-01T07:22:46.674Z,61.88
2019-06-01T07:23:46.663Z,56.25
2019-06-01T07:24:46.674Z,61.88
2019-06-01T07:25:46.658Z,61.88
2019-06-01T07:26:46.637Z,61.88
2019-06-01T07:27:46.630Z,67.50
2019-06-01T07:28:46.632Z,67.50
2019-06-01T07:29:46.617Z,61.88
2019-06-01T07:30:50.387Z,61.88
2019-06-01T07:31:46.579Z,39.38
2019-06-01T07:32:46.569Z,33.75
2019-06-01T07:33:46.559Z,61.88
2019-06-01T07:34:46.549Z,45.00
2019-06-01T07:35:46.539Z,50.62
2019-06-01T07:36:46.533Z,56.25
2019-06-01T07:37:46.518Z,50.62
2019-06-01T07:38:46.520Z,61.88
2019-06-01T07:39:46.494Z,61.88
2019-06-01T07:40:46.494Z,61.88
2019-06-01T07:41:46.480Z,61.88
2019-06-01T07:42:46.471Z,61.88
2019-06-01T07:43:46.452Z,56.25
2019-06-01T07:44:46.442Z,61.88
2019-06-01T07:45:46.429Z,61.88
2019-06-01T07:46:46.421Z,61.88
2019-06-01T07:47:46.410Z,61.88
2019-06-01T07:48:46.403Z,61.88
2019-06-01T07:49:46.387Z,61.88
2019-06-01T07:50:46.378Z,61.88
2019-06-01T07:51:46.407Z,61.88
2019-06-01T07:52:46.373Z,61.88
2019-06-01T07:53:46.350Z,61.88
2019-06-01T07:54:46.336Z,61.88
2019-06-01T07:55:46.319Z,61.88
2019-06-01T07:56:46.312Z,67.50
2019-06-01T07:57:46.298Z,61.88
2019-06-01T07:58:46.286Z,61.88
2019-06-01T07:59:46.279Z,67.50
2019-06-01T08:00:46.265Z,67.50
2019-06-01T08:01:46.258Z,67.50
2019-06-01T08:02:46.244Z,45.00
2019-06-01T08:03:46.233Z,67.50
2019-06-01T08:04:53.622Z,67.50
2019-06-01T08:05:47.212Z,73.12
2019-06-01T08:06:48.429Z,73.12
2019-06-01T08:07:46.188Z,73.12
2019-06-01T08:08:46.178Z,73.12
2019-06-01T08:09:46.172Z,73.12
2019-06-01T08:10:46.155Z,73.12
2019-06-01T08:11:46.147Z,67.50
2019-06-01T08:12:46.133Z,73.12
2019-06-01T08:13:46.122Z,67.50
2019-06-01T08:14:46.112Z,78.75
2019-06-01T08:15:46.112Z,78.75
2019-06-01T08:16:46.093Z,67.50
2019-06-01T08:17:46.081Z,73.12
2019-06-01T08:18:46.074Z,78.75
2019-06-01T08:19:46.060Z,73.12
2019-06-01T08:20:46.047Z,61.88
2019-06-01T08:21:46.036Z,56.25
2019-06-01T08:22:46.024Z,50.62
2019-06-01T08:23:46.019Z,61.88
2019-06-01T08:24:46.009Z,61.88
2019-06-01T08:25:45.992Z,61.88
2019-06-01T08:26:45.981Z,67.50
2019-06-01T08:27:45.975Z,67.50
2019-06-01T08:28:45.965Z,67.50
2019-06-01T08:29:45.955Z,67.50
2019-06-01T08:30:45.943Z,67.50
2019-06-01T08:31:45.930Z,67.50
2019-06-01T08:32:45.927Z,73.12
2019-06-01T08:33:45.905Z,78.75
2019-06-01T08:34:45.899Z,78.75
2019-06-01T08:35:45.883Z,73.12
2019-06-01T08:36:45.875Z,67.50
2019-06-01T08:37:45.863Z,61.88
2019-06-01T08:38:45.884Z,56.25
2019-06-01T08:39:45.845Z,56.25
2019-06-01T08:40:45.830Z,56.25
2019-06-01T08:41:45.821Z,61.88
2019-06-01T08:42:45.814Z,61.88
2019-06-01T08:43:45.800Z,67.50
2019-06-01T08:44:45.787Z,67.50
2019-06-01T08:45:45.781Z,61.88
2019-06-01T08:46:45.767Z,61.88
2019-06-01T08:47:45.757Z,61.88
2019-06-01T08:48:45.744Z,61.88
2019-06-01T08:49:45.735Z,61.88
2019-06-01T08:50:46.307Z,56.25
2019-06-01T08:51:45.720Z,56.25
2019-06-01T08:52:45.702Z,56.25
2019-06-01T08:53:45.705Z,56.25
2019-06-01T08:54:45.682Z,56.25
2019-06-01T08:55:45.675Z,56.25
2019-06-01T08:56:45.663Z,56.25
2019-06-01T08:57:45.678Z,56.25
2019-06-01T08:58:45.640Z,56.25
2019-06-01T08:59:45.632Z,61.88
2019-06-01T09:00:45.631Z,61.88
2019-06-01T09:01:45.627Z,50.62
2019-06-01T09:02:45.597Z,56.25
2019-06-01T09:03:47.041Z,56.25
2019-06-01T09:04:45.582Z,56.25
2019-06-01T09:05:45.575Z,56.25
2019-06-01T09:06:45.554Z,45.00
2019-06-01T09:07:45.546Z,50.62
2019-06-01T09:08:45.536Z,50.62
2019-06-01T09:09:45.528Z,56.25
2019-06-01T09:10:45.514Z,56.25
2019-06-01T09:11:45.522Z,56.25
2019-06-01T09:12:45.497Z,61.88
2019-06-01T09:13:45.483Z,61.88
2019-06-01T09:14:45.471Z,61.88
2019-06-01T09:15:45.461Z,56.25
2019-06-01T09:16:45.456Z,45.00
2019-06-01T09:17:45.445Z,61.88
2019-06-01T09:18:45.430Z,61.88
2019-06-01T09:19:45.420Z,50.62
2019-06-01T09:20:45.409Z,45.00
2019-06-01T09:21:45.406Z,45.00
2019-06-01T09:22:48.074Z,28.12
2019-06-01T09:23:45.381Z,39.38
2019-06-01T09:24:45.364Z,45.00
2019-06-01T09:25:45.362Z,61.88
2019-06-01T09:26:45.349Z,50.62
2019-06-01T09:27:45.333Z,45.00
2019-06-01T09:28:45.322Z,45.00
2019-06-01T09:29:45.313Z,50.62
2019-06-01T09:30:45.319Z,50.62
2019-06-01T09:31:45.292Z,45.00
2019-06-01T09:32:45.283Z,56.25
2019-06-01T09:33:45.268Z,56.25
2019-06-01T09:34:45.259Z,56.25
2019-06-01T09:35:55.314Z,50.62
2019-06-01T09:36:46.235Z,45.00
2019-06-01T09:37:45.926Z,50.62
2019-06-01T09:38:45.214Z,50.62
2019-06-01T09:39:45.208Z,50.62
2019-06-01T09:40:45.239Z,45.00
2019-06-01T09:41:45.183Z,50.62
2019-06-01T09:42:45.177Z,50.62
2019-06-01T09:43:45.167Z,50.62
2019-06-01T09:44:45.149Z,50.62
2019-06-01T09:45:45.139Z,45.00
2019-06-01T09:46:45.127Z,39.38
2019-06-01T09:47:45.397Z,50.62
2019-06-01T09:48:45.105Z,50.62
2019-06-01T09:49:45.096Z,50.62
2019-06-01T09:50:45.087Z,50.62
2019-06-01T09:51:45.072Z,45.00
2019-06-01T09:52:45.065Z,45.00
2019-06-01T09:53:45.052Z,45.00
2019-06-01T09:54:45.043Z,45.00
2019-06-01T09:55:45.031Z,45.00
2019-06-01T09:56:45.018Z,45.00
2019-06-01T09:57:45.006Z,45.00
2019-06-01T09:58:44.996Z,39.38
2019-06-01T09:59:44.986Z,45.00
2019-06-01T10:00:44.981Z,39.38
2019-06-01T10:01:44.966Z,33.75
2019-06-01T10:02:45.345Z,28.12
2019-06-01T10:03:44.943Z,39.38
2019-06-01T10:04:44.932Z,45.00
2019-06-01T10:06:00.696Z,39.38
2019-06-01T10:06:45.911Z,45.00
2019-06-01T10:07:44.898Z,45.00
2019-06-01T10:08:44.888Z,45.00
2019-06-01T10:09:44.878Z,39.38
2019-06-01T10:10:44.879Z,33.75
2019-06-01T10:11:44.854Z,33.75
2019-06-01T10:12:44.845Z,39.38
2019-06-01T10:13:44.834Z,33.75
2019-06-01T10:14:44.822Z,39.38
2019-06-01T10:15:44.812Z,45.00
2019-06-01T10:16:44.802Z,39.38
2019-06-01T10:17:44.791Z,39.38
2019-06-01T10:18:44.798Z,33.75
2019-06-01T10:19:44.771Z,39.38
2019-06-01T10:20:44.759Z,39.38
2019-06-01T10:21:44.748Z,39.38
2019-06-01T10:22:44.738Z,39.38
2019-06-01T10:23:49.025Z,39.38
2019-06-01T10:24:45.716Z,39.38
2019-06-01T10:25:44.703Z,39.38
2019-06-01T10:26:44.698Z,33.75
2019-06-01T10:27:44.695Z,33.75
2019-06-01T10:28:44.674Z,33.75
2019-06-01T10:29:44.661Z,33.75
2019-06-01T10:30:44.649Z,22.50
2019-06-01T10:31:44.637Z,28.12
2019-06-01T10:32:44.632Z,28.12
2019-06-01T10:33:44.633Z,28.12
2019-06-01T10:34:44.608Z,28.12
2019-06-01T10:35:44.597Z,22.50
2019-06-01T10:36:44.588Z,28.12
2019-06-01T10:37:44.577Z,33.75
2019-06-01T10:38:44.563Z,22.50
2019-06-01T10:39:44.565Z,22.50
2019-06-01T10:40:44.546Z,28.12
2019-06-01T10:41:44.530Z,28.12
2019-06-01T10:42:44.518Z,28.12
2019-06-01T10:43:44.513Z,28.12
2019-06-01T10:44:45.812Z,28.12
2019-06-01T10:45:44.506Z,22.50
2019-06-01T10:46:44.482Z,22.50
2019-06-01T10:47:44.464Z,22.50
2019-06-01T10:48:44.453Z,22.50
2019-06-01T10:49:44.444Z,28.12
2019-06-01T10:50:44.438Z,33.75
2019-06-01T10:51:44.421Z,28.12
2019-06-01T10:52:44.415Z,28.12
2019-06-01T10:53:44.403Z,33.75
2019-06-01T10:54:44.390Z,28.12
2019-06-01T10:55:44.378Z,28.12
2019-06-01T10:56:44.371Z,22.50
2019-06-01T10:57:44.358Z,22.50
2019-06-01T10:58:59.154Z,22.50
2019-06-01T10:59:45.335Z,16.88
2019-06-01T11:00:50.572Z,22.50
2019-06-01T11:01:45.321Z,22.50
2019-06-01T11:02:44.309Z,22.50
2019-06-01T11:03:44.294Z,22.50
2019-06-01T11:04:44.299Z,22.50
2019-06-01T11:05:44.274Z,22.50
2019-06-01T11:06:48.307Z,22.50
2019-06-01T11:07:44.254Z,22.50
2019-06-01T11:08:44.246Z,16.88
2019-06-01T11:09:44.232Z,16.88
2019-06-01T11:10:44.234Z,16.88
2019-06-01T11:11:44.209Z,16.88
2019-06-01T11:12:44.198Z,16.88
2019-06-01T11:13:44.204Z,16.88
2019-06-01T11:14:44.176Z,11.25
2019-06-01T11:15:44.171Z,16.88
2019-06-01T11:16:44.312Z,16.88
2019-06-01T11:17:44.143Z,11.25
2019-06-01T11:18:44.148Z,16.88
2019-06-01T11:19:44.128Z,16.88
2019-06-01T11:20:44.112Z,16.88
2019-06-01T11:21:44.099Z,16.88
2019-06-01T11:22:44.087Z,16.88
2019-06-01T11:23:46.486Z,16.88
2019-06-01T11:24:44.091Z,16.88
2019-06-01T11:25:44.064Z,16.88
2019-06-01T11:26:44.045Z,16.88
2019-06-01T11:27:44.147Z,22.50
2019-06-01T11:28:44.437Z,16.88
2019-06-01T11:29:50.773Z,22.50
2019-06-01T11:30:45.016Z,22.50
2019-06-01T11:31:44.264Z,22.50
2019-06-01T11:32:45.129Z,16.88
2019-06-01T11:33:44.359Z,16.88
2019-06-01T11:34:44.536Z,16.88
2019-06-01T11:35:45.335Z,11.25
2019-06-01T11:37:01.834Z,11.25
2019-06-01T11:37:44.926Z,16.88
2019-06-01T11:38:44.962Z,16.88
2019-06-01T11:39:44.814Z,16.88
2019-06-01T11:40:44.804Z,22.50
2019-06-01T11:41:44.795Z,22.50
2019-06-01T11:42:45.099Z,16.88
2019-06-01T11:43:45.872Z,16.88
2019-06-01T11:44:44.915Z,16.88
2019-06-01T11:45:45.124Z,11.25
2019-06-01T11:46:44.984Z,11.25
2019-06-01T11:47:44.834Z,11.25
2019-06-01T11:48:45.256Z,11.25
2019-06-01T11:49:44.936Z,11.25
2019-06-01T11:50:45.255Z,11.25
2019-06-01T11:51:43.779Z,11.25
2019-06-01T11:52:43.765Z,11.25
2019-06-01T11:53:43.757Z,11.25
2019-06-01T11:54:43.744Z,11.25
2019-06-01T11:55:43.735Z,16.88
2019-06-01T11:56:43.722Z,11.25
2019-06-01T11:57:43.728Z,11.25
2019-06-01T11:58:43.719Z,11.25
2019-06-01T11:59:43.697Z,16.88
2019-06-01T12:00:43.819Z,16.88
2019-06-01T12:01:44.184Z,16.88
2019-06-01T12:02:43.898Z,11.25
2019-06-01T12:03:43.950Z,11.25
2019-06-01T12:04:44.121Z,11.25
2019-06-01T12:05:44.102Z,11.25
2019-06-01T12:06:44.022Z,11.25
2019-06-01T12:07:43.931Z,11.25
2019-06-01T12:08:44.078Z,11.25
2019-06-01T12:09:43.869Z,11.25
2019-06-01T12:10:43.572Z,11.25
2019-06-01T12:11:44.246Z,11.25
2019-06-01T12:12:44.346Z,11.25
2019-06-01T12:13:44.475Z,11.25
2019-06-01T12:14:44.481Z,11.25
2019-06-01T12:15:44.409Z,11.25
2019-06-01T12:16:44.805Z,11.25
2019-06-01T12:17:44.705Z,11.25
2019-06-01T12:18:44.617Z,11.25
2019-06-01T12:19:44.764Z,16.88
2019-06-01T12:20:43.464Z,16.88
2019-06-01T12:21:43.455Z,11.25
2019-06-01T12:22:43.447Z,11.25
2019-06-01T12:23:43.436Z,11.25
2019-06-01T12:24:43.421Z,11.25
2019-06-01T12:25:44.352Z,16.88
2019-06-01T12:26:43.518Z,16.88
2019-06-01T12:27:43.648Z,11.25
2019-06-01T12:28:43.779Z,11.25
2019-06-01T12:29:43.809Z,11.25
2019-06-01T12:30:43.795Z,11.25
2019-06-01T12:31:43.811Z,11.25
2019-06-01T12:32:44.085Z,11.25
2019-06-01T12:33:44.202Z,11.25
2019-06-01T12:34:44.005Z,11.25
2019-06-01T12:35:44.026Z,11.25
2019-06-01T12:36:44.662Z,5.62
2019-06-01T12:37:59.649Z,5.62
2019-06-01T12:38:44.273Z,5.62
2019-06-01T12:39:44.389Z,5.62
2019-06-01T12:40:43.348Z,11.25
2019-06-01T12:41:43.548Z,11.25
2019-06-01T12:42:43.949Z,11.25
2019-06-01T12:43:43.559Z,11.25
2019-06-01T12:44:43.643Z,11.25
2019-06-01T12:45:43.707Z,11.25
2019-06-01T12:46:43.847Z,11.25
2019-06-01T12:47:43.935Z,11.25
2019-06-01T12:48:43.906Z,5.62
2019-06-01T12:49:44.080Z,5.62
2019-06-01T12:50:46.741Z,5.62
2019-06-01T12:51:44.556Z,5.62
2019-06-01T12:52:44.124Z,5.62
2019-06-01T12:53:44.388Z,5.62
2019-06-01T12:54:43.098Z,5.62
2019-06-01T12:55:43.098Z,5.62
2019-06-01T12:56:43.087Z,5.62
2019-06-01T12:57:43.072Z,5.62
2019-06-01T12:58:43.855Z,5.62
2019-06-01T12:59:43.287Z,5.62
2019-06-01T13:00:44.174Z,5.62
2019-06-01T13:01:43.177Z,5.62
2019-06-01T13:02:46.410Z,11.25